CheckWX is a tool to help pilots better visualize weather data.  It is not intended as a substitute for an official pre-flight weather briefing.

00:20:55 UTC

GCRR TAF
Lanzarote Airport
Lanzarote Island, Spain
TAF GCRR 252000Z 2521/2621 28005KT 9999 BKN030 TX22/2614Z TN15/2606Z BECMG 2608/2610 16010KT PROB30 TEMPO 2605/2615 4500 SHRA SCT030TCU

Mar-25@
21:00 UTC

Mar-25 @ 21:00 UTC

Mar-26@
08:00 UTC

Mar-26 @ 08:00 UTC

TAF GCRR 252000Z 2521/2621 28005KT 9999 BKN030 TX22/2614Z TN15/2606Z
Wind
  • 280° at 5 KTS
Cloud Levels
  • Broken at 3,000' AGL

Mar-26@
05:00 UTC

Mar-26 @ 05:00 UTC

Mar-26@
15:00 UTC

Mar-26 @ 15:00 UTC

PROB30 TEMPO 2605/2615 4500 SHRA SCT030TCU

Temporary - 30% Likelihood

Temporary - 30% Likelihood during this time.

Conditions
Rain
Cloud Levels
  • Scattered at 3,000' AGL

Mar-26@
08:00 UTC

Mar-26 @ 08:00 UTC

Mar-26@
21:00 UTC

Mar-26 @ 21:00 UTC

BECMG 2608/2610 16010KT

Becoming

Becoming Conditions expected by Tue, Mar 26, 2019 @ 10:00 UTC

Wind
  • 160° at 10 KTS
Cloud Levels
  • Broken at 3,000' AGL